createdAt,value
2018-12-12T00:00:43.508Z,13.90
2018-12-12T00:03:09.874Z,15.00
2018-12-12T00:05:36.124Z,15.37
2018-12-12T00:08:02.390Z,14.23
2018-12-12T00:10:29.365Z,13.40
2018-12-12T00:12:55.721Z,13.50
2018-12-12T00:15:22.000Z,15.23
2018-12-12T00:17:48.289Z,14.70
2018-12-12T00:20:14.563Z,13.33
2018-12-12T00:22:40.835Z,13.07
2018-12-12T00:25:07.440Z,13.37
2018-12-12T00:27:33.749Z,14.00
2018-12-12T00:30:00.076Z,13.47
2018-12-12T00:32:26.337Z,13.87
2018-12-12T00:34:52.552Z,14.17
2018-12-12T00:37:18.909Z,15.27
2018-12-12T00:39:45.152Z,14.23
2018-12-12T00:42:11.397Z,13.07
2018-12-12T00:44:38.372Z,14.40
2018-12-12T00:47:05.278Z,15.33
2018-12-12T00:49:32.102Z,15.20
2018-12-12T00:51:58.934Z,15.57
2018-12-12T00:54:25.214Z,15.43
2018-12-12T00:56:52.188Z,15.40
2018-12-12T00:59:18.447Z,15.27
2018-12-12T01:01:44.789Z,14.13
2018-12-12T01:04:11.064Z,14.47
2018-12-12T01:06:37.359Z,14.67
2018-12-12T01:09:04.464Z,14.53
2018-12-12T01:11:36.829Z,14.20
2018-12-12T01:14:03.180Z,15.43
2018-12-12T01:16:29.868Z,14.40
2018-12-12T01:18:56.875Z,15.70
2018-12-12T01:21:23.749Z,14.03
2018-12-12T01:23:50.747Z,15.57
2018-12-12T01:26:16.964Z,14.73
2018-12-12T01:28:43.236Z,14.03
2018-12-12T01:31:09.566Z,14.27
2018-12-12T01:33:36.572Z,14.30
2018-12-12T01:36:02.902Z,15.13
2018-12-12T01:38:29.139Z,15.90
2018-12-12T01:40:55.386Z,15.20
2018-12-12T01:43:21.664Z,15.00
2018-12-12T01:45:47.965Z,15.40
2018-12-12T01:48:14.957Z,13.60
2018-12-12T01:50:42.260Z,13.93
2018-12-12T01:53:09.306Z,13.87
2018-12-12T01:55:35.572Z,14.50
2018-12-12T01:58:01.847Z,15.47
2018-12-12T02:00:28.141Z,14.80
2018-12-12T02:02:54.686Z,14.60
2018-12-12T02:05:20.924Z,14.07
2018-12-12T02:07:47.252Z,15.50
2018-12-12T02:10:13.544Z,15.00
2018-12-12T02:12:39.805Z,15.93
2018-12-12T02:15:06.065Z,15.20
2018-12-12T02:17:32.610Z,15.23
2018-12-12T02:19:59.675Z,16.03
2018-12-12T02:22:25.940Z,16.20
2018-12-12T02:24:52.183Z,15.00
2018-12-12T02:27:19.220Z,15.67
2018-12-12T02:29:45.967Z,15.60
2018-12-12T02:32:12.252Z,15.30
2018-12-12T02:34:38.540Z,15.63
2018-12-12T02:37:05.531Z,16.00
2018-12-12T02:39:31.837Z,15.83
2018-12-12T02:41:58.160Z,16.27
2018-12-12T02:44:24.377Z,15.87
2018-12-12T02:46:50.628Z,15.80
2018-12-12T02:49:16.943Z,15.97
2018-12-12T02:51:43.917Z,16.50
2018-12-12T02:54:10.165Z,15.23
2018-12-12T02:56:36.469Z,15.33
2018-12-12T02:59:03.021Z,16.27
2018-12-12T03:01:29.247Z,15.57
2018-12-12T03:03:55.494Z,15.70
2018-12-12T03:06:21.867Z,16.00
2018-12-12T03:08:49.051Z,15.80
2018-12-12T03:11:15.388Z,15.97
2018-12-12T03:13:41.659Z,15.83
2018-12-12T03:16:08.945Z,15.80
2018-12-12T03:18:35.176Z,16.37
2018-12-12T03:23:34.024Z,15.60
2018-12-12T03:26:00.281Z,15.13
2018-12-12T03:28:27.278Z,15.33
2018-12-12T03:30:54.877Z,15.00
2018-12-12T03:33:21.149Z,15.07
2018-12-12T03:35:47.415Z,15.17
2018-12-12T03:38:13.677Z,15.00
2018-12-12T03:40:39.976Z,15.53
2018-12-12T03:43:06.257Z,15.83
2018-12-12T03:45:32.492Z,15.40
2018-12-12T03:47:58.764Z,16.43
2018-12-12T03:50:26.330Z,15.17
2018-12-12T03:52:52.694Z,15.17
2018-12-12T03:55:18.981Z,16.53
2018-12-12T03:57:45.356Z,14.57
2018-12-12T04:00:11.625Z,15.03
2018-12-12T04:02:37.906Z,16.27
2018-12-12T04:05:04.208Z,16.63
2018-12-12T04:07:31.202Z,16.30
2018-12-12T04:09:57.472Z,16.47
2018-12-12T04:12:23.720Z,15.47
2018-12-12T04:14:50.731Z,16.07
2018-12-12T04:17:16.993Z,15.57
2018-12-12T04:19:43.968Z,15.33
2018-12-12T04:22:10.236Z,15.40
2018-12-12T04:24:36.543Z,15.53
2018-12-12T04:27:02.821Z,15.63
2018-12-12T04:29:29.838Z,14.23
2018-12-12T04:31:56.200Z,15.00
2018-12-12T04:34:24.026Z,15.10
2018-12-12T04:36:48.734Z,14.87
2018-12-12T04:39:14.974Z,14.60
2018-12-12T04:41:41.240Z,15.87
2018-12-12T04:44:07.877Z,15.17
2018-12-12T04:46:34.124Z,16.20
2018-12-12T04:49:00.352Z,14.93
2018-12-12T04:51:26.619Z,15.83
2018-12-12T04:53:53.288Z,16.10
2018-12-12T04:56:19.572Z,16.70
2018-12-12T04:58:45.888Z,16.33
2018-12-12T05:01:12.180Z,16.03
2018-12-12T05:03:38.441Z,16.00
2018-12-12T05:06:04.992Z,16.37
2018-12-12T05:08:31.231Z,16.60
2018-12-12T05:10:57.470Z,15.70
2018-12-12T05:13:24.460Z,15.70
2018-12-12T05:15:50.720Z,16.60
2018-12-12T05:18:16.974Z,16.30
2018-12-12T05:20:43.949Z,15.67
2018-12-12T05:23:10.194Z,15.17
2018-12-12T05:25:36.415Z,16.83
2018-12-12T05:28:02.663Z,16.93
2018-12-12T05:30:28.998Z,17.47
2018-12-12T05:32:55.309Z,16.30
2018-12-12T05:35:21.565Z,14.87
2018-12-12T05:37:51.968Z,16.60
2018-12-12T05:40:14.098Z,17.13
2018-12-12T05:42:40.386Z,16.53
2018-12-12T05:45:06.660Z,16.73
2018-12-12T05:47:32.932Z,16.80
2018-12-12T05:49:59.967Z,17.43
2018-12-12T05:52:26.224Z,17.00
2018-12-12T05:54:52.480Z,16.63
2018-12-12T05:57:18.750Z,16.70
2018-12-12T05:59:45.797Z,16.97
2018-12-12T06:02:12.072Z,16.63
2018-12-12T06:04:38.336Z,16.23
2018-12-12T06:07:04.568Z,16.97
2018-12-12T06:09:30.831Z,17.30
2018-12-12T06:11:57.089Z,17.33
2018-12-12T06:14:23.450Z,16.37
2018-12-12T06:16:49.702Z,15.93
2018-12-12T06:19:16.366Z,16.07
2018-12-12T06:21:42.660Z,16.57
2018-12-12T06:24:09.632Z,16.17
2018-12-12T06:26:37.489Z,15.97
2018-12-12T06:29:02.752Z,16.07
2018-12-12T06:31:29.104Z,15.23
2018-12-12T06:33:56.107Z,14.93
2018-12-12T06:36:22.334Z,15.13
2018-12-12T06:38:48.645Z,17.07
2018-12-12T06:41:14.896Z,16.17
2018-12-12T06:43:41.136Z,15.47
2018-12-12T06:46:07.347Z,16.13
2018-12-12T06:48:33.545Z,14.20
2018-12-12T06:50:59.780Z,15.20
2018-12-12T06:53:25.987Z,15.20
2018-12-12T06:55:52.957Z,15.63
2018-12-12T06:58:19.197Z,15.60
2018-12-12T07:00:45.448Z,15.63
2018-12-12T07:03:11.708Z,16.17
2018-12-12T07:05:38.691Z,15.47
2018-12-12T07:08:05.187Z,15.47
2018-12-12T07:10:31.405Z,15.47
2018-12-12T07:12:57.642Z,15.47
2018-12-12T07:15:24.828Z,14.73
2018-12-12T07:17:51.768Z,15.13
2018-12-12T07:20:18.027Z,16.13
2018-12-12T07:22:44.261Z,15.30
2018-12-12T07:25:11.105Z,15.60
2018-12-12T07:27:37.506Z,15.63
2018-12-12T07:30:03.840Z,14.97
2018-12-12T07:32:30.084Z,16.20
2018-12-12T07:34:56.341Z,15.37
2018-12-12T07:37:23.339Z,15.20
2018-12-12T07:39:49.584Z,15.03
2018-12-12T07:42:15.845Z,14.03
2018-12-12T07:44:42.133Z,14.20
2018-12-12T07:47:08.466Z,14.10
2018-12-12T07:49:34.700Z,13.77
2018-12-12T07:52:01.272Z,12.87
2018-12-12T07:54:28.273Z,12.13
2018-12-12T07:56:54.516Z,12.90
2018-12-12T07:59:20.811Z,12.47
2018-12-12T08:01:47.064Z,12.60
2018-12-12T08:04:13.333Z,12.17
2018-12-12T08:06:40.329Z,12.57
2018-12-12T08:09:06.597Z,14.07
2018-12-12T08:11:33.600Z,12.97
2018-12-12T08:13:59.820Z,13.80
2018-12-12T08:16:26.076Z,14.07
2018-12-12T08:18:52.352Z,15.27
2018-12-12T08:21:18.616Z,13.83
2018-12-12T08:23:44.868Z,14.13
2018-12-12T08:26:11.112Z,14.23
2018-12-12T08:28:38.080Z,14.07
2018-12-12T08:31:04.415Z,15.47
2018-12-12T08:33:30.674Z,14.73
2018-12-12T08:35:56.915Z,14.93
2018-12-12T08:38:23.184Z,15.90
2018-12-12T08:40:49.429Z,17.43
2018-12-12T08:43:16.597Z,14.57
2018-12-12T08:45:43.191Z,16.63
2018-12-12T08:48:10.174Z,16.70
2018-12-12T08:50:36.433Z,19.33
2018-12-12T08:53:03.353Z,20.07
2018-12-12T08:55:29.604Z,20.07
2018-12-12T08:57:55.854Z,20.80
2018-12-12T09:00:22.855Z,20.80
2018-12-12T09:02:49.438Z,22.20
2018-12-12T09:05:15.811Z,20.07
2018-12-12T09:07:42.070Z,21.70
2018-12-12T09:10:08.369Z,22.37
2018-12-12T09:12:34.641Z,20.97
2018-12-12T09:15:00.882Z,22.13
2018-12-12T09:17:27.872Z,22.33
2018-12-12T09:19:54.141Z,21.10
2018-12-12T09:22:20.381Z,21.40
2018-12-12T09:24:47.343Z,22.40
2018-12-12T09:27:13.597Z,21.93
2018-12-12T09:29:39.964Z,22.03
2018-12-12T09:32:06.188Z,22.20
2018-12-12T09:34:32.449Z,21.97
2018-12-12T09:36:59.434Z,21.00
2018-12-12T09:39:25.753Z,22.20
2018-12-12T09:41:51.984Z,22.03
2018-12-12T09:44:18.247Z,19.53
2018-12-12T09:46:44.497Z,20.70
2018-12-12T09:49:11.490Z,21.33
2018-12-12T09:51:37.724Z,23.23
2018-12-12T09:54:04.309Z,21.70
2018-12-12T09:56:31.296Z,22.47
2018-12-12T09:58:57.853Z,22.43
2018-12-12T10:01:24.116Z,22.07
2018-12-12T10:03:51.328Z,22.40
2018-12-12T10:06:17.568Z,22.13
2018-12-12T10:08:43.817Z,21.27
2018-12-12T10:11:10.797Z,21.40
2018-12-12T10:13:37.039Z,21.83
2018-12-12T10:16:03.284Z,22.03
2018-12-12T10:18:29.607Z,22.33
2018-12-12T10:20:55.864Z,22.00
2018-12-12T10:23:22.108Z,21.20
2018-12-12T10:25:49.072Z,22.77
2018-12-12T10:28:15.720Z,20.90
2018-12-12T10:30:42.011Z,21.73
2018-12-12T10:33:08.238Z,21.10
2018-12-12T10:35:35.249Z,20.30
2018-12-12T10:38:01.510Z,19.93
2018-12-12T10:40:28.500Z,21.63
2018-12-12T10:42:54.752Z,21.30
2018-12-12T10:45:21.000Z,22.13
2018-12-12T10:47:47.550Z,22.70
2018-12-12T10:50:14.547Z,21.67
2018-12-12T10:52:40.825Z,21.90
2018-12-12T10:55:07.845Z,21.23
2018-12-12T10:57:34.101Z,20.80
2018-12-12T11:00:01.094Z,20.90
2018-12-12T11:02:29.628Z,20.10
2018-12-12T11:04:56.639Z,21.97
2018-12-12T11:07:22.884Z,19.83
2018-12-12T11:09:49.866Z,20.83
2018-12-12T11:12:15.420Z,20.93
2018-12-12T11:14:41.931Z,21.23
2018-12-12T11:17:08.215Z,20.07
2018-12-12T11:19:35.197Z,19.80
2018-12-12T11:22:01.460Z,19.80
2018-12-12T11:24:27.695Z,17.90
2018-12-12T11:26:53.932Z,17.60
2018-12-12T11:29:20.480Z,18.63
2018-12-12T11:31:47.508Z,17.80
2018-12-12T11:34:13.741Z,18.07
2018-12-12T11:36:39.988Z,17.03
2018-12-12T11:39:06.982Z,17.47
2018-12-12T11:41:33.213Z,17.47
2018-12-12T11:43:59.428Z,17.33
2018-12-12T11:46:25.694Z,17.80
2018-12-12T11:48:51.931Z,19.03
2018-12-12T11:51:18.912Z,18.40
2018-12-12T11:53:45.219Z,20.63
2018-12-12T11:56:12.180Z,20.13
2018-12-12T11:58:38.431Z,19.13
2018-12-12T12:01:04.692Z,18.23
2018-12-12T12:03:30.968Z,17.77
2018-12-12T12:05:57.196Z,17.43
2018-12-12T12:08:24.521Z,15.70
2018-12-12T12:10:51.525Z,16.20
2018-12-12T12:13:17.773Z,15.47
2018-12-12T12:15:44.022Z,14.17
2018-12-12T12:18:10.992Z,16.80
2018-12-12T12:20:37.250Z,16.00
2018-12-12T12:23:03.562Z,16.47
2018-12-12T12:25:29.819Z,15.10
2018-12-12T12:27:56.085Z,14.83
2018-12-12T12:30:23.136Z,15.43
2018-12-12T12:32:49.397Z,15.97
2018-12-12T12:35:15.696Z,15.20
2018-12-12T12:37:41.933Z,14.80
2018-12-12T12:40:08.222Z,14.30
2018-12-12T12:42:35.244Z,13.47
2018-12-12T12:45:01.817Z,15.17
2018-12-12T12:47:28.800Z,15.33
2018-12-12T12:49:55.061Z,14.10
2018-12-12T12:52:21.319Z,13.00
2018-12-12T12:54:48.332Z,12.80
2018-12-12T12:57:14.572Z,13.10
2018-12-12T12:59:40.825Z,13.57
2018-12-12T13:02:07.819Z,12.47
2018-12-12T13:04:34.104Z,13.07
2018-12-12T13:07:00.336Z,13.33
2018-12-12T13:09:26.578Z,14.03
2018-12-12T13:11:53.120Z,14.10
2018-12-12T13:14:19.348Z,14.40
2018-12-12T13:16:45.556Z,14.60
2018-12-12T13:19:12.338Z,15.33
2018-12-12T13:21:39.382Z,14.70
2018-12-12T13:24:04.903Z,14.33
2018-12-12T13:26:31.473Z,14.87
2018-12-12T13:28:58.513Z,14.43
2018-12-12T13:31:24.846Z,14.10
2018-12-12T13:33:51.832Z,14.40
2018-12-12T13:36:18.092Z,13.97
2018-12-12T13:38:44.336Z,13.67
2018-12-12T13:41:11.364Z,14.20
2018-12-12T13:43:38.025Z,12.53
2018-12-12T13:46:03.928Z,13.13
2018-12-12T13:48:30.157Z,13.43
2018-12-12T13:50:56.651Z,13.77
2018-12-12T13:53:22.929Z,13.27
2018-12-12T13:55:49.918Z,21.67
2018-12-12T13:58:16.256Z,20.17
2018-12-12T14:00:42.514Z,13.97
2018-12-12T14:03:08.752Z,12.10
2018-12-12T14:05:35.017Z,11.07
2018-12-12T14:08:01.286Z,11.30
2018-12-12T14:10:27.528Z,10.87
2018-12-12T14:12:53.766Z,12.13
2018-12-12T14:15:20.025Z,11.57
2018-12-12T14:17:46.286Z,10.83
2018-12-12T14:20:12.527Z,12.23
2018-12-12T14:22:38.800Z,11.67
2018-12-12T14:25:05.848Z,12.00
2018-12-12T14:27:32.107Z,11.70
2018-12-12T14:29:58.413Z,11.40
2018-12-12T14:32:24.653Z,12.67
2018-12-12T14:34:50.926Z,12.17
2018-12-12T14:37:17.155Z,12.13
2018-12-12T14:39:43.520Z,12.10
2018-12-12T14:42:10.807Z,12.43
2018-12-12T14:44:37.085Z,11.83
2018-12-12T14:47:04.090Z,12.37
2018-12-12T14:49:31.101Z,13.70
2018-12-12T14:51:57.390Z,11.57
2018-12-12T14:54:23.628Z,11.00
2018-12-12T14:56:49.872Z,11.80
2018-12-12T14:59:16.839Z,12.03
2018-12-12T15:01:43.108Z,11.67
2018-12-12T15:04:09.365Z,12.00
2018-12-12T15:06:36.351Z,11.70
2018-12-12T15:09:02.653Z,12.60
2018-12-12T15:11:28.892Z,11.33
2018-12-12T15:13:55.151Z,13.87
2018-12-12T15:16:21.435Z,15.73
2018-12-12T15:18:48.409Z,15.20
2018-12-12T15:21:14.713Z,13.97
2018-12-12T15:23:40.963Z,12.93
2018-12-12T15:26:07.210Z,12.90
2018-12-12T15:28:33.496Z,14.63
2018-12-12T15:30:59.837Z,14.80
2018-12-12T15:33:26.280Z,14.03
2018-12-12T15:35:53.241Z,14.77
2018-12-12T15:38:19.512Z,15.53
2018-12-12T15:40:46.632Z,15.97
2018-12-12T15:43:12.864Z,16.73
2018-12-12T15:45:39.150Z,16.87
2018-12-12T15:48:05.659Z,16.23
2018-12-12T15:50:32.645Z,16.40
2018-12-12T15:52:59.063Z,15.90
2018-12-12T15:55:25.677Z,16.87
2018-12-12T15:57:51.917Z,16.13
2018-12-12T16:00:18.187Z,15.67
2018-12-12T16:02:44.488Z,15.00
2018-12-12T16:05:10.752Z,16.97
2018-12-12T16:07:37.000Z,17.03
2018-12-12T16:10:03.564Z,16.37
2018-12-12T16:12:29.829Z,17.83
2018-12-12T16:14:56.147Z,17.63
2018-12-12T16:17:22.418Z,19.40
2018-12-12T16:19:48.669Z,27.13
2018-12-12T16:22:14.924Z,28.93
2018-12-12T16:24:41.216Z,26.97
2018-12-12T16:27:08.197Z,24.40
2018-12-12T16:29:34.449Z,19.57
2018-12-12T16:32:00.752Z,24.27
2018-12-12T16:34:27.038Z,24.43
2018-12-12T16:36:54.030Z,31.80
2018-12-12T16:39:20.335Z,28.80
2018-12-12T16:41:46.596Z,20.43
2018-12-12T16:44:12.845Z,18.00
2018-12-12T16:46:39.093Z,17.20
2018-12-12T16:49:06.089Z,17.30
2018-12-12T16:51:32.345Z,16.40
2018-12-12T16:53:58.563Z,17.27
2018-12-12T16:56:24.978Z,16.53
2018-12-12T16:58:51.243Z,16.57
2018-12-12T17:01:17.505Z,16.10
2018-12-12T17:03:43.760Z,15.70
2018-12-12T17:06:10.013Z,16.60
2018-12-12T17:08:36.259Z,15.97
2018-12-12T17:11:03.531Z,16.17
2018-12-12T17:13:29.788Z,15.63
2018-12-12T17:15:56.087Z,16.13
2018-12-12T17:18:22.413Z,16.53
2018-12-12T17:20:49.442Z,16.60
2018-12-12T17:23:16.439Z,15.77
2018-12-12T17:25:42.773Z,16.30
2018-12-12T17:28:09.004Z,17.23
2018-12-12T17:30:35.290Z,16.00
2018-12-12T17:33:01.612Z,16.83
2018-12-12T17:35:28.597Z,15.20
2018-12-12T17:37:54.881Z,16.57
2018-12-12T17:40:21.888Z,14.80
2018-12-12T17:42:48.120Z,15.97
2018-12-12T17:45:14.369Z,15.77
2018-12-12T17:47:40.608Z,14.80
2018-12-12T17:50:06.896Z,14.77
2018-12-12T17:52:33.187Z,16.50
2018-12-12T17:54:59.466Z,19.40
2018-12-12T17:57:25.749Z,14.33
2018-12-12T17:59:51.996Z,14.67
2018-12-12T18:02:18.290Z,16.73
2018-12-12T18:04:45.351Z,12.50
2018-12-12T18:07:11.613Z,12.63
2018-12-12T18:09:37.876Z,11.97
2018-12-12T18:12:04.147Z,11.83
2018-12-12T18:14:30.398Z,12.60
2018-12-12T18:16:56.696Z,12.40
2018-12-12T18:19:22.981Z,18.53
2018-12-12T18:21:49.239Z,16.60
2018-12-12T18:24:16.262Z,12.10
2018-12-12T18:26:42.636Z,12.77
2018-12-12T18:29:08.888Z,12.50
2018-12-12T18:31:35.175Z,11.50
2018-12-12T18:34:02.212Z,11.67
2018-12-12T18:36:29.256Z,12.30
2018-12-12T18:38:56.249Z,11.17
2018-12-12T18:41:22.509Z,13.00
2018-12-12T18:43:48.800Z,12.50
2018-12-12T18:46:15.467Z,12.30
2018-12-12T18:48:42.149Z,12.33
2018-12-12T18:51:08.497Z,12.37
2018-12-12T18:53:34.763Z,13.30
2018-12-12T18:56:01.071Z,12.17
2018-12-12T18:58:27.341Z,12.77
2018-12-12T19:00:54.387Z,13.77
2018-12-12T19:03:21.388Z,13.67
2018-12-12T19:05:47.665Z,14.23
2018-12-12T19:08:14.890Z,15.43
2018-12-12T19:10:41.242Z,15.70
2018-12-12T19:13:08.244Z,16.20
2018-12-12T19:15:34.503Z,15.27
2018-12-12T19:18:00.773Z,15.03
2018-12-12T19:20:27.024Z,15.57
2018-12-12T19:22:53.277Z,15.90
2018-12-12T19:25:19.557Z,12.03
2018-12-12T19:27:45.833Z,12.00
2018-12-12T19:30:12.135Z,11.13
2018-12-12T19:32:38.406Z,12.70
2018-12-12T19:35:04.696Z,12.10
2018-12-12T19:37:30.987Z,12.30
2018-12-12T19:39:57.317Z,12.10
2018-12-12T19:42:25.244Z,12.33
2018-12-12T19:44:51.547Z,13.10
2018-12-12T19:47:17.804Z,13.77
2018-12-12T19:49:44.098Z,15.50
2018-12-12T19:52:10.409Z,16.37
2018-12-12T19:54:36.666Z,11.73
2018-12-12T19:57:02.978Z,12.10
2018-12-12T19:59:30.106Z,12.17
2018-12-12T20:01:57.139Z,13.33
2018-12-12T20:04:24.159Z,14.60
2018-12-12T20:06:50.448Z,13.63
2018-12-12T20:09:16.748Z,11.27
2018-12-12T20:11:43.816Z,11.87
2018-12-12T20:14:10.075Z,12.20
2018-12-12T20:16:36.339Z,12.30
2018-12-12T20:19:02.692Z,11.60
2018-12-12T20:21:29.823Z,12.10
2018-12-12T20:23:56.907Z,11.20
2018-12-12T20:26:23.195Z,11.43
2018-12-12T20:28:50.219Z,12.50
2018-12-12T20:31:16.627Z,12.20
2018-12-12T20:33:42.923Z,11.60
2018-12-12T20:36:09.261Z,11.70
2018-12-12T20:38:35.564Z,11.13
2018-12-12T20:41:02.730Z,11.30
2018-12-12T20:43:28.166Z,11.83
2018-12-12T20:45:54.555Z,11.30
2018-12-12T20:48:20.873Z,10.93
2018-12-12T20:50:47.142Z,11.07
2018-12-12T20:53:13.409Z,12.37
2018-12-12T20:55:39.736Z,10.97
2018-12-12T20:58:06.976Z,12.20
2018-12-12T21:00:33.262Z,12.73
2018-12-12T21:02:59.586Z,12.27
2018-12-12T21:05:26.617Z,11.63
2018-12-12T21:07:54.397Z,10.13
2018-12-12T21:10:20.677Z,9.63
2018-12-12T21:12:47.002Z,9.53
2018-12-12T21:15:13.352Z,9.67
2018-12-12T21:17:39.654Z,9.03
2018-12-12T21:20:06.036Z,7.60
2018-12-12T21:22:33.065Z,8.10
2018-12-12T21:24:59.349Z,7.13
2018-12-12T21:27:26.560Z,6.47
2018-12-12T21:29:53.705Z,7.17
2018-12-12T21:32:19.977Z,6.87
2018-12-12T21:34:46.297Z,6.80
2018-12-12T21:37:12.560Z,5.70
2018-12-12T21:39:39.115Z,6.47
2018-12-12T21:42:05.385Z,6.30
2018-12-12T21:44:32.194Z,6.63
2018-12-12T21:46:58.425Z,6.57
2018-12-12T21:49:25.474Z,5.90
2018-12-12T21:51:51.785Z,6.17
2018-12-12T21:54:18.089Z,6.13
2018-12-12T21:56:44.358Z,5.33
2018-12-12T21:59:11.376Z,5.20
2018-12-12T22:01:37.636Z,6.20
2018-12-12T22:04:03.939Z,5.97
2018-12-12T22:06:30.189Z,5.50
2018-12-12T22:08:57.160Z,5.40
2018-12-12T22:11:23.665Z,5.13
2018-12-12T22:13:50.671Z,4.87
2018-12-12T22:16:16.936Z,6.03
2018-12-12T22:18:43.933Z,5.37
2018-12-12T22:21:10.451Z,5.03
2018-12-12T22:23:36.675Z,5.47
2018-12-12T22:26:02.953Z,5.73
2018-12-12T22:28:29.485Z,5.40
2018-12-12T22:30:55.747Z,5.23
2018-12-12T22:33:22.781Z,5.13
2018-12-12T22:35:49.787Z,5.47
2018-12-12T22:38:16.051Z,5.17
2018-12-12T22:40:42.361Z,5.53
2018-12-12T22:43:08.611Z,5.03
2018-12-12T22:45:34.864Z,8.33
2018-12-12T22:48:01.145Z,8.83
2018-12-12T22:50:27.720Z,7.57
2018-12-12T22:52:54.797Z,8.10
2018-12-12T22:55:21.054Z,6.70
2018-12-12T22:57:47.315Z,6.67
2018-12-12T23:03:10.312Z,7.60
2018-12-12T23:05:36.552Z,5.90
2018-12-12T23:08:02.830Z,6.00
2018-12-12T23:10:29.840Z,5.73
2018-12-12T23:12:56.073Z,5.53
2018-12-12T23:15:22.393Z,5.50
2018-12-12T23:17:48.784Z,6.40
2018-12-12T23:20:15.066Z,6.27
2018-12-12T23:22:41.319Z,6.43
2018-12-12T23:25:07.570Z,6.13
2018-12-12T23:27:33.924Z,6.03
2018-12-12T23:30:00.221Z,6.63
2018-12-12T23:32:27.188Z,6.93
2018-12-12T23:34:53.456Z,6.37
2018-12-12T23:37:19.680Z,7.47
2018-12-12T23:39:45.936Z,8.63
2018-12-12T23:42:12.156Z,8.30
2018-12-12T23:44:38.396Z,8.30
2018-12-12T23:47:05.651Z,8.77
2018-12-12T23:49:32.640Z,8.43
2018-12-12T23:51:58.874Z,8.00
2018-12-12T23:54:25.429Z,7.20
2018-12-12T23:56:51.697Z,7.63
2018-12-12T23:59:18.668Z,8.27
